sensor_id;sensor_type;location;lat;lon;timestamp;temperature;humidity
43151;DHT22;28755;51.478;5.702;2022-12-20T00:01:12;12.50;99.90
43151;DHT22;28755;51.478;5.702;2022-12-20T00:03:39;12.50;99.90
43151;DHT22;28755;51.478;5.702;2022-12-20T00:06:04;12.40;99.90
43151;DHT22;28755;51.478;5.702;2022-12-20T00:08:31;12.40;99.90
43151;DHT22;28755;51.478;5.702;2022-12-20T00:11:00;12.40;99.90
43151;DHT22;28755;51.478;5.702;2022-12-20T00:13:26;12.40;99.90
43151;DHT22;28755;51.478;5.702;2022-12-20T00:16:03;12.40;99.90
43151;DHT22;28755;51.478;5.702;2022-12-20T00:18:29;12.40;99.90
43151;DHT22;28755;51.478;5.702;2022-12-20T00:20:58;12.40;99.90
43151;DHT22;28755;51.478;5.702;2022-12-20T00:23:24;12.40;99.90
43151;DHT22;28755;51.478;5.702;2022-12-20T00:25:50;12.40;99.90
43151;DHT22;28755;51.478;5.702;2022-12-20T00:28:15;12.50;99.90
43151;DHT22;28755;51.478;5.702;2022-12-20T00:30:41;12.40;99.90
43151;DHT22;28755;51.478;5.702;2022-12-20T00:33:06;12.50;99.90
43151;DHT22;28755;51.478;5.702;2022-12-20T00:35:32;12.60;99.90
43151;DHT22;28755;51.478;5.702;2022-12-20T00:37:57;12.50;99.90
43151;DHT22;28755;51.478;5.702;2022-12-20T00:40:23;12.50;99.90
43151;DHT22;28755;51.478;5.702;2022-12-20T00:42:48;12.50;99.90
43151;DHT22;28755;51.478;5.702;2022-12-20T00:45:14;12.60;99.90
43151;DHT22;28755;51.478;5.702;2022-12-20T00:47:39;12.70;99.90
43151;DHT22;28755;51.478;5.702;2022-12-20T00:50:05;12.70;99.90
43151;DHT22;28755;51.478;5.702;2022-12-20T00:52:31;12.60;99.90
43151;DHT22;28755;51.478;5.702;2022-12-20T00:54:57;12.80;99.90
43151;DHT22;28755;51.478;5.702;2022-12-20T00:57:22;12.70;99.90
43151;DHT22;28755;51.478;5.702;2022-12-20T00:59:48;12.70;99.90
43151;DHT22;28755;51.478;5.702;2022-12-20T01:02:13;12.70;99.90
43151;DHT22;28755;51.478;5.702;2022-12-20T01:04:39;12.70;99.90
43151;DHT22;28755;51.478;5.702;2022-12-20T01:07:04;12.70;99.90
43151;DHT22;28755;51.478;5.702;2022-12-20T01:09:30;12.70;99.90
43151;DHT22;28755;51.478;5.702;2022-12-20T01:11:56;12.70;99.90
43151;DHT22;28755;51.478;5.702;2022-12-20T01:14:21;12.70;99.90
43151;DHT22;28755;51.478;5.702;2022-12-20T01:16:47;12.70;99.90
43151;DHT22;28755;51.478;5.702;2022-12-20T01:19:15;12.80;99.90
43151;DHT22;28755;51.478;5.702;2022-12-20T01:21:41;12.80;99.90
43151;DHT22;28755;51.478;5.702;2022-12-20T01:24:13;12.80;99.90
43151;DHT22;28755;51.478;5.702;2022-12-20T01:26:39;12.70;99.90
43151;DHT22;28755;51.478;5.702;2022-12-20T01:29:05;12.60;99.90
43151;DHT22;28755;51.478;5.702;2022-12-20T01:31:31;12.60;99.90
43151;DHT22;28755;51.478;5.702;2022-12-20T01:33:57;12.70;99.90
43151;DHT22;28755;51.478;5.702;2022-12-20T01:36:25;12.50;99.90
43151;DHT22;28755;51.478;5.702;2022-12-20T01:38:56;12.40;99.90
43151;DHT22;28755;51.478;5.702;2022-12-20T01:41:22;12.30;99.90
43151;DHT22;28755;51.478;5.702;2022-12-20T01:43:53;12.10;99.90
43151;DHT22;28755;51.478;5.702;2022-12-20T01:46:22;12.10;99.90
43151;DHT22;28755;51.478;5.702;2022-12-20T01:48:53;12.00;99.90
43151;DHT22;28755;51.478;5.702;2022-12-20T01:51:22;11.90;99.90
43151;DHT22;28755;51.478;5.702;2022-12-20T01:53:53;11.90;99.90
43151;DHT22;28755;51.478;5.702;2022-12-20T01:56:21;11.80;99.90
43151;DHT22;28755;51.478;5.702;2022-12-20T01:58:47;11.80;99.90
43151;DHT22;28755;51.478;5.702;2022-12-20T02:01:15;11.70;99.90
43151;DHT22;28755;51.478;5.702;2022-12-20T02:03:41;11.70;99.90
43151;DHT22;28755;51.478;5.702;2022-12-20T02:06:19;11.60;99.90
43151;DHT22;28755;51.478;5.702;2022-12-20T02:08:47;11.60;99.90
43151;DHT22;28755;51.478;5.702;2022-12-20T02:17:07;11.50;99.90
43151;DHT22;28755;51.478;5.702;2022-12-20T02:30:53;11.70;99.90
43151;DHT22;28755;51.478;5.702;2022-12-20T02:33:21;11.70;99.90
43151;DHT22;28755;51.478;5.702;2022-12-20T02:35:47;11.60;99.90
43151;DHT22;28755;51.478;5.702;2022-12-20T02:38:42;11.70;99.90
43151;DHT22;28755;51.478;5.702;2022-12-20T02:41:26;11.70;99.90
43151;DHT22;28755;51.478;5.702;2022-12-20T02:44:09;11.80;99.90
43151;DHT22;28755;51.478;5.702;2022-12-20T02:46:55;11.80;99.90
43151;DHT22;28755;51.478;5.702;2022-12-20T02:49:26;11.80;99.90
43151;DHT22;28755;51.478;5.702;2022-12-20T02:51:54;11.80;99.90
43151;DHT22;28755;51.478;5.702;2022-12-20T02:54:20;11.90;99.90
43151;DHT22;28755;51.478;5.702;2022-12-20T02:56:59;12.00;99.90
43151;DHT22;28755;51.478;5.702;2022-12-20T02:59:40;12.10;99.90
43151;DHT22;28755;51.478;5.702;2022-12-20T03:02:08;12.10;99.90
43151;DHT22;28755;51.478;5.702;2022-12-20T03:04:37;12.20;99.90
43151;DHT22;28755;51.478;5.702;2022-12-20T03:07:06;12.30;99.90
43151;DHT22;28755;51.478;5.702;2022-12-20T03:09:34;12.30;99.90
43151;DHT22;28755;51.478;5.702;2022-12-20T03:12:00;12.30;99.90
43151;DHT22;28755;51.478;5.702;2022-12-20T03:14:26;12.40;99.90
43151;DHT22;28755;51.478;5.702;2022-12-20T03:16:52;12.30;99.90
43151;DHT22;28755;51.478;5.702;2022-12-20T03:19:18;12.40;99.90
43151;DHT22;28755;51.478;5.702;2022-12-20T03:21:44;12.30;99.90
43151;DHT22;28755;51.478;5.702;2022-12-20T03:24:11;12.40;99.90
43151;DHT22;28755;51.478;5.702;2022-12-20T03:26:38;12.40;99.90
43151;DHT22;28755;51.478;5.702;2022-12-20T03:29:04;12.50;99.90
43151;DHT22;28755;51.478;5.702;2022-12-20T03:31:30;12.60;99.90
43151;DHT22;28755;51.478;5.702;2022-12-20T03:33:55;12.50;99.90
43151;DHT22;28755;51.478;5.702;2022-12-20T03:36:21;12.60;99.90
43151;DHT22;28755;51.478;5.702;2022-12-20T03:38:51;12.60;99.90
43151;DHT22;28755;51.478;5.702;2022-12-20T03:41:18;12.60;99.90
43151;DHT22;28755;51.478;5.702;2022-12-20T03:43:45;12.60;99.90
43151;DHT22;28755;51.478;5.702;2022-12-20T03:46:11;12.60;99.90
43151;DHT22;28755;51.478;5.702;2022-12-20T03:48:36;12.70;99.90
43151;DHT22;28755;51.478;5.702;2022-12-20T03:51:02;12.60;99.90
43151;DHT22;28755;51.478;5.702;2022-12-20T03:53:27;12.70;99.90
43151;DHT22;28755;51.478;5.702;2022-12-20T03:55:53;12.70;99.90
43151;DHT22;28755;51.478;5.702;2022-12-20T03:58:19;12.70;99.90
43151;DHT22;28755;51.478;5.702;2022-12-20T04:00:44;12.70;99.90
43151;DHT22;28755;51.478;5.702;2022-12-20T04:03:10;12.80;99.90
43151;DHT22;28755;51.478;5.702;2022-12-20T04:05:36;12.70;99.90
43151;DHT22;28755;51.478;5.702;2022-12-20T04:08:01;12.70;99.90
43151;DHT22;28755;51.478;5.702;2022-12-20T04:10:27;12.70;99.90
43151;DHT22;28755;51.478;5.702;2022-12-20T04:12:52;12.70;99.90
43151;DHT22;28755;51.478;5.702;2022-12-20T04:15:18;12.70;99.90
43151;DHT22;28755;51.478;5.702;2022-12-20T04:17:44;12.70;99.90
43151;DHT22;28755;51.478;5.702;2022-12-20T04:20:13;12.60;99.90
43151;DHT22;28755;51.478;5.702;2022-12-20T04:22:46;12.60;99.90
43151;DHT22;28755;51.478;5.702;2022-12-20T04:25:12;12.60;99.90
43151;DHT22;28755;51.478;5.702;2022-12-20T04:27:38;12.70;99.90
43151;DHT22;28755;51.478;5.702;2022-12-20T04:30:04;12.60;99.90
43151;DHT22;28755;51.478;5.702;2022-12-20T04:32:29;12.60;99.90
43151;DHT22;28755;51.478;5.702;2022-12-20T04:34:55;12.60;99.90
43151;DHT22;28755;51.478;5.702;2022-12-20T04:37:20;12.60;99.90
43151;DHT22;28755;51.478;5.702;2022-12-20T04:39:46;12.60;99.90
43151;DHT22;28755;51.478;5.702;2022-12-20T04:42:12;12.80;99.90
43151;DHT22;28755;51.478;5.702;2022-12-20T04:44:37;12.70;99.90
43151;DHT22;28755;51.478;5.702;2022-12-20T04:47:03;12.70;99.90
43151;DHT22;28755;51.478;5.702;2022-12-20T04:49:28;12.70;99.90
43151;DHT22;28755;51.478;5.702;2022-12-20T04:51:54;12.60;99.90
43151;DHT22;28755;51.478;5.702;2022-12-20T04:54:39;12.60;99.90
43151;DHT22;28755;51.478;5.702;2022-12-20T04:57:05;12.70;99.90
43151;DHT22;28755;51.478;5.702;2022-12-20T04:59:30;12.60;99.90
43151;DHT22;28755;51.478;5.702;2022-12-20T05:01:56;12.60;99.90
43151;DHT22;28755;51.478;5.702;2022-12-20T05:04:21;12.60;99.90
43151;DHT22;28755;51.478;5.702;2022-12-20T05:06:47;12.60;99.90
43151;DHT22;28755;51.478;5.702;2022-12-20T05:09:13;12.60;99.90
43151;DHT22;28755;51.478;5.702;2022-12-20T05:11:38;12.50;99.90
43151;DHT22;28755;51.478;5.702;2022-12-20T05:14:04;12.40;99.90
43151;DHT22;28755;51.478;5.702;2022-12-20T05:16:29;12.40;99.90
43151;DHT22;28755;51.478;5.702;2022-12-20T05:18:55;12.30;99.90
43151;DHT22;28755;51.478;5.702;2022-12-20T05:21:20;12.30;99.90
43151;DHT22;28755;51.478;5.702;2022-12-20T05:24:05;12.30;99.90
43151;DHT22;28755;51.478;5.702;2022-12-20T05:26:49;12.20;99.90
43151;DHT22;28755;51.478;5.702;2022-12-20T05:29:14;12.20;99.90
43151;DHT22;28755;51.478;5.702;2022-12-20T05:31:41;12.10;99.90
43151;DHT22;28755;51.478;5.702;2022-12-20T05:34:06;12.10;99.90
43151;DHT22;28755;51.478;5.702;2022-12-20T05:36:32;12.10;99.90
43151;DHT22;28755;51.478;5.702;2022-12-20T05:38:57;12.00;99.90
43151;DHT22;28755;51.478;5.702;2022-12-20T05:41:23;12.00;99.90
43151;DHT22;28755;51.478;5.702;2022-12-20T05:43:48;12.10;99.90
43151;DHT22;28755;51.478;5.702;2022-12-20T05:46:14;12.10;99.90
43151;DHT22;28755;51.478;5.702;2022-12-20T05:48:39;12.00;99.90
43151;DHT22;28755;51.478;5.702;2022-12-20T05:51:05;12.00;99.90
43151;DHT22;28755;51.478;5.702;2022-12-20T05:53:31;12.00;99.90
43151;DHT22;28755;51.478;5.702;2022-12-20T05:55:57;12.00;99.90
43151;DHT22;28755;51.478;5.702;2022-12-20T05:58:23;12.00;99.90
43151;DHT22;28755;51.478;5.702;2022-12-20T06:00:48;11.90;99.90
43151;DHT22;28755;51.478;5.702;2022-12-20T06:03:14;11.90;99.90
43151;DHT22;28755;51.478;5.702;2022-12-20T06:05:40;12.00;99.90
43151;DHT22;28755;51.478;5.702;2022-12-20T06:08:07;12.00;99.90
43151;DHT22;28755;51.478;5.702;2022-12-20T06:10:34;11.90;99.90
43151;DHT22;28755;51.478;5.702;2022-12-20T06:13:01;12.00;99.90
43151;DHT22;28755;51.478;5.702;2022-12-20T06:15:27;11.90;99.90
43151;DHT22;28755;51.478;5.702;2022-12-20T06:17:52;11.80;99.90
43151;DHT22;28755;51.478;5.702;2022-12-20T06:20:18;11.90;99.90
43151;DHT22;28755;51.478;5.702;2022-12-20T06:22:44;11.90;99.90
43151;DHT22;28755;51.478;5.702;2022-12-20T06:25:09;11.90;99.90
43151;DHT22;28755;51.478;5.702;2022-12-20T06:27:36;11.80;99.90
43151;DHT22;28755;51.478;5.702;2022-12-20T06:30:04;11.80;99.90
43151;DHT22;28755;51.478;5.702;2022-12-20T06:32:30;11.80;99.90
43151;DHT22;28755;51.478;5.702;2022-12-20T06:34:56;11.70;99.90
43151;DHT22;28755;51.478;5.702;2022-12-20T06:37:21;11.70;99.90
43151;DHT22;28755;51.478;5.702;2022-12-20T06:39:47;11.70;99.90
43151;DHT22;28755;51.478;5.702;2022-12-20T06:42:12;11.70;99.90
43151;DHT22;28755;51.478;5.702;2022-12-20T06:44:38;11.80;99.90
43151;DHT22;28755;51.478;5.702;2022-12-20T06:47:04;11.70;99.90
43151;DHT22;28755;51.478;5.702;2022-12-20T06:49:29;11.70;99.90
43151;DHT22;28755;51.478;5.702;2022-12-20T06:51:55;11.70;99.90
43151;DHT22;28755;51.478;5.702;2022-12-20T06:54:20;11.60;99.90
43151;DHT22;28755;51.478;5.702;2022-12-20T06:56:46;11.60;99.90
43151;DHT22;28755;51.478;5.702;2022-12-20T06:59:12;11.60;99.90
43151;DHT22;28755;51.478;5.702;2022-12-20T07:01:37;11.60;99.90
43151;DHT22;28755;51.478;5.702;2022-12-20T07:04:03;11.60;99.90
43151;DHT22;28755;51.478;5.702;2022-12-20T07:06:28;11.60;99.90
43151;DHT22;28755;51.478;5.702;2022-12-20T07:08:54;11.60;99.90
43151;DHT22;28755;51.478;5.702;2022-12-20T07:11:20;11.60;99.90
43151;DHT22;28755;51.478;5.702;2022-12-20T07:13:46;11.60;99.90
43151;DHT22;28755;51.478;5.702;2022-12-20T07:16:11;11.60;99.90
43151;DHT22;28755;51.478;5.702;2022-12-20T07:18:37;11.60;99.90
43151;DHT22;28755;51.478;5.702;2022-12-20T07:21:04;11.60;99.90
43151;DHT22;28755;51.478;5.702;2022-12-20T07:23:30;11.60;99.90
43151;DHT22;28755;51.478;5.702;2022-12-20T07:25:57;11.60;99.90
43151;DHT22;28755;51.478;5.702;2022-12-20T07:28:24;11.60;99.90
43151;DHT22;28755;51.478;5.702;2022-12-20T07:30:50;11.60;99.90
43151;DHT22;28755;51.478;5.702;2022-12-20T07:33:16;11.70;99.90
43151;DHT22;28755;51.478;5.702;2022-12-20T07:35:41;11.70;99.90
43151;DHT22;28755;51.478;5.702;2022-12-20T07:38:10;11.70;99.90
43151;DHT22;28755;51.478;5.702;2022-12-20T07:40:38;11.70;99.90
43151;DHT22;28755;51.478;5.702;2022-12-20T07:43:03;11.70;99.90
43151;DHT22;28755;51.478;5.702;2022-12-20T07:45:29;11.80;99.90
43151;DHT22;28755;51.478;5.702;2022-12-20T07:47:54;11.80;99.90
43151;DHT22;28755;51.478;5.702;2022-12-20T07:50:21;11.80;99.90
43151;DHT22;28755;51.478;5.702;2022-12-20T07:52:48;11.90;99.90
43151;DHT22;28755;51.478;5.702;2022-12-20T07:55:15;12.00;99.90
43151;DHT22;28755;51.478;5.702;2022-12-20T07:57:51;12.00;99.90
43151;DHT22;28755;51.478;5.702;2022-12-20T08:00:18;12.00;99.90
43151;DHT22;28755;51.478;5.702;2022-12-20T08:03:16;12.10;99.90
43151;DHT22;28755;51.478;5.702;2022-12-20T08:05:42;12.10;99.90
43151;DHT22;28755;51.478;5.702;2022-12-20T08:08:09;12.30;99.90
43151;DHT22;28755;51.478;5.702;2022-12-20T08:10:36;12.30;99.90
43151;DHT22;28755;51.478;5.702;2022-12-20T08:13:03;12.40;99.90
43151;DHT22;28755;51.478;5.702;2022-12-20T08:15:30;12.50;99.90
43151;DHT22;28755;51.478;5.702;2022-12-20T08:17:55;12.60;99.90
43151;DHT22;28755;51.478;5.702;2022-12-20T08:20:21;12.60;99.90
43151;DHT22;28755;51.478;5.702;2022-12-20T08:22:47;12.70;99.90
43151;DHT22;28755;51.478;5.702;2022-12-20T08:25:12;12.60;99.90
43151;DHT22;28755;51.478;5.702;2022-12-20T08:27:38;12.60;99.90
43151;DHT22;28755;51.478;5.702;2022-12-20T08:30:04;12.70;99.90
43151;DHT22;28755;51.478;5.702;2022-12-20T08:32:30;12.60;99.90
43151;DHT22;28755;51.478;5.702;2022-12-20T08:34:55;12.60;99.90
43151;DHT22;28755;51.478;5.702;2022-12-20T08:37:21;12.60;99.90
43151;DHT22;28755;51.478;5.702;2022-12-20T08:39:47;12.50;99.90
43151;DHT22;28755;51.478;5.702;2022-12-20T08:42:12;12.60;99.90
43151;DHT22;28755;51.478;5.702;2022-12-20T08:44:38;12.60;99.90
43151;DHT22;28755;51.478;5.702;2022-12-20T08:47:04;12.60;99.90
43151;DHT22;28755;51.478;5.702;2022-12-20T08:49:29;12.50;99.90
43151;DHT22;28755;51.478;5.702;2022-12-20T08:51:55;12.50;99.90
43151;DHT22;28755;51.478;5.702;2022-12-20T08:54:20;12.50;99.90
43151;DHT22;28755;51.478;5.702;2022-12-20T08:56:46;12.40;99.90
43151;DHT22;28755;51.478;5.702;2022-12-20T08:59:12;12.40;99.90
43151;DHT22;28755;51.478;5.702;2022-12-20T09:01:37;12.50;99.90
43151;DHT22;28755;51.478;5.702;2022-12-20T09:04:03;12.40;99.90
43151;DHT22;28755;51.478;5.702;2022-12-20T09:06:29;12.40;99.90
43151;DHT22;28755;51.478;5.702;2022-12-20T09:08:55;12.40;99.90
43151;DHT22;28755;51.478;5.702;2022-12-20T09:11:23;12.40;99.90
43151;DHT22;28755;51.478;5.702;2022-12-20T09:13:52;12.40;99.90
43151;DHT22;28755;51.478;5.702;2022-12-20T09:16:19;12.50;99.90
43151;DHT22;28755;51.478;5.702;2022-12-20T09:18:53;12.50;99.90
43151;DHT22;28755;51.478;5.702;2022-12-20T09:21:20;12.40;99.90
43151;DHT22;28755;51.478;5.702;2022-12-20T09:23:46;12.40;99.90
43151;DHT22;28755;51.478;5.702;2022-12-20T09:26:14;12.40;99.90
43151;DHT22;28755;51.478;5.702;2022-12-20T09:28:40;12.60;99.90
43151;DHT22;28755;51.478;5.702;2022-12-20T09:31:10;12.60;99.90
43151;DHT22;28755;51.478;5.702;2022-12-20T09:33:36;12.50;99.90
43151;DHT22;28755;51.478;5.702;2022-12-20T09:36:02;12.60;99.90
43151;DHT22;28755;51.478;5.702;2022-12-20T09:38:29;12.60;99.90
43151;DHT22;28755;51.478;5.702;2022-12-20T09:41:00;12.70;99.90
43151;DHT22;28755;51.478;5.702;2022-12-20T09:43:26;12.80;99.90
43151;DHT22;28755;51.478;5.702;2022-12-20T09:45:58;12.70;99.90
43151;DHT22;28755;51.478;5.702;2022-12-20T09:48:36;12.70;99.90
43151;DHT22;28755;51.478;5.702;2022-12-20T09:54:03;12.60;99.90
43151;DHT22;28755;51.478;5.702;2022-12-20T09:56:35;12.60;99.90
43151;DHT22;28755;51.478;5.702;2022-12-20T09:59:03;12.60;99.90
43151;DHT22;28755;51.478;5.702;2022-12-20T10:01:31;12.60;99.90
43151;DHT22;28755;51.478;5.702;2022-12-20T10:04:01;12.60;99.90
43151;DHT22;28755;51.478;5.702;2022-12-20T10:12:18;12.60;99.90
43151;DHT22;28755;51.478;5.702;2022-12-20T10:17:45;12.70;99.90
43151;DHT22;28755;51.478;5.702;2022-12-20T10:20:23;12.70;99.90
43151;DHT22;28755;51.478;5.702;2022-12-20T10:23:06;12.70;99.90
43151;DHT22;28755;51.478;5.702;2022-12-20T10:25:34;12.70;99.90
43151;DHT22;28755;51.478;5.702;2022-12-20T10:28:02;12.70;99.90
43151;DHT22;28755;51.478;5.702;2022-12-20T10:30:31;12.80;99.90
43151;DHT22;28755;51.478;5.702;2022-12-20T10:32:57;12.90;99.90
43151;DHT22;28755;51.478;5.702;2022-12-20T10:35:33;12.90;99.90
43151;DHT22;28755;51.478;5.702;2022-12-20T10:38:03;12.90;99.90
43151;DHT22;28755;51.478;5.702;2022-12-20T10:40:41;13.00;99.90
43151;DHT22;28755;51.478;5.702;2022-12-20T10:43:17;13.00;99.90
43151;DHT22;28755;51.478;5.702;2022-12-20T10:45:45;12.90;99.90
43151;DHT22;28755;51.478;5.702;2022-12-20T10:51:00;12.50;99.90
43151;DHT22;28755;51.478;5.702;2022-12-20T10:53:27;12.50;99.90
43151;DHT22;28755;51.478;5.702;2022-12-20T10:56:04;12.50;99.90
43151;DHT22;28755;51.478;5.702;2022-12-20T10:58:35;12.40;99.90
43151;DHT22;28755;51.478;5.702;2022-12-20T11:01:18;12.30;99.90
43151;DHT22;28755;51.478;5.702;2022-12-20T11:04:01;12.30;99.90
43151;DHT22;28755;51.478;5.702;2022-12-20T11:12:06;12.00;99.90
43151;DHT22;28755;51.478;5.702;2022-12-20T11:14:36;11.90;99.90
43151;DHT22;28755;51.478;5.702;2022-12-20T11:17:50;11.90;99.90
43151;DHT22;28755;51.478;5.702;2022-12-20T11:20:03;11.90;99.90
43151;DHT22;28755;51.478;5.702;2022-12-20T11:38:42;12.00;99.90
43151;DHT22;28755;51.478;5.702;2022-12-20T11:41:29;11.90;99.90
43151;DHT22;28755;51.478;5.702;2022-12-20T11:47:32;12.00;99.90
43151;DHT22;28755;51.478;5.702;2022-12-20T11:53:29;11.90;99.90
43151;DHT22;28755;51.478;5.702;2022-12-20T11:55:58;11.90;99.90
43151;DHT22;28755;51.478;5.702;2022-12-20T11:58:32;11.90;99.90
43151;DHT22;28755;51.478;5.702;2022-12-20T12:01:15;11.80;99.90
43151;DHT22;28755;51.478;5.702;2022-12-20T12:04:31;11.90;99.90
43151;DHT22;28755;51.478;5.702;2022-12-20T12:06:35;11.80;99.90
43151;DHT22;28755;51.478;5.702;2022-12-20T12:09:21;11.80;99.90
43151;DHT22;28755;51.478;5.702;2022-12-20T12:12:03;11.90;99.90
43151;DHT22;28755;51.478;5.702;2022-12-20T12:14:43;11.90;99.90
43151;DHT22;28755;51.478;5.702;2022-12-20T12:17:22;11.90;99.90
43151;DHT22;28755;51.478;5.702;2022-12-20T12:19:49;11.90;99.90
43151;DHT22;28755;51.478;5.702;2022-12-20T12:22:25;12.00;99.90
43151;DHT22;28755;51.478;5.702;2022-12-20T12:24:56;12.00;99.90
43151;DHT22;28755;51.478;5.702;2022-12-20T12:27:24;11.90;99.90
43151;DHT22;28755;51.478;5.702;2022-12-20T12:29:52;12.00;99.90
43151;DHT22;28755;51.478;5.702;2022-12-20T12:45:36;11.90;99.90
43151;DHT22;28755;51.478;5.702;2022-12-20T12:50:53;11.80;99.90
43151;DHT22;28755;51.478;5.702;2022-12-20T12:55:56;11.80;99.90
43151;DHT22;28755;51.478;5.702;2022-12-20T13:09:18;11.70;99.90
43151;DHT22;28755;51.478;5.702;2022-12-20T13:11:47;11.70;99.90
43151;DHT22;28755;51.478;5.702;2022-12-20T13:16:44;11.60;99.90
43151;DHT22;28755;51.478;5.702;2022-12-20T13:19:15;11.60;99.90
43151;DHT22;28755;51.478;5.702;2022-12-20T13:21:43;11.60;99.90
43151;DHT22;28755;51.478;5.702;2022-12-20T13:38:34;11.50;99.90
43151;DHT22;28755;51.478;5.702;2022-12-20T13:41:01;11.40;99.90
43151;DHT22;28755;51.478;5.702;2022-12-20T13:43:41;11.40;99.90
43151;DHT22;28755;51.478;5.702;2022-12-20T13:51:03;11.30;99.90
43151;DHT22;28755;51.478;5.702;2022-12-20T13:53:29;11.30;99.90
43151;DHT22;28755;51.478;5.702;2022-12-20T13:55:55;11.30;99.90
43151;DHT22;28755;51.478;5.702;2022-12-20T13:58:24;11.30;99.90
43151;DHT22;28755;51.478;5.702;2022-12-20T14:00:51;11.20;99.90
43151;DHT22;28755;51.478;5.702;2022-12-20T14:03:26;11.20;99.90
43151;DHT22;28755;51.478;5.702;2022-12-20T14:06:01;11.20;99.90
43151;DHT22;28755;51.478;5.702;2022-12-20T14:08:30;11.20;99.90
43151;DHT22;28755;51.478;5.702;2022-12-20T14:11:12;11.20;99.90
43151;DHT22;28755;51.478;5.702;2022-12-20T14:13:38;11.10;99.90
43151;DHT22;28755;51.478;5.702;2022-12-20T14:16:16;11.10;99.90
43151;DHT22;28755;51.478;5.702;2022-12-20T14:18:49;11.10;99.90
43151;DHT22;28755;51.478;5.702;2022-12-20T14:21:17;11.10;99.90
43151;DHT22;28755;51.478;5.702;2022-12-20T14:23:45;11.20;99.90
43151;DHT22;28755;51.478;5.702;2022-12-20T14:26:18;11.10;99.90
43151;DHT22;28755;51.478;5.702;2022-12-20T14:28:50;11.10;99.90
43151;DHT22;28755;51.478;5.702;2022-12-20T14:36:36;11.10;99.90
43151;DHT22;28755;51.478;5.702;2022-12-20T14:41:54;11.00;99.90
43151;DHT22;28755;51.478;5.702;2022-12-20T14:44:21;11.10;99.90
43151;DHT22;28755;51.478;5.702;2022-12-20T14:47:26;11.10;99.90
43151;DHT22;28755;51.478;5.702;2022-12-20T14:49:59;11.00;99.90
43151;DHT22;28755;51.478;5.702;2022-12-20T14:55:21;11.00;99.90
43151;DHT22;28755;51.478;5.702;2022-12-20T14:57:51;11.00;99.90
43151;DHT22;28755;51.478;5.702;2022-12-20T15:08:17;11.00;99.90
43151;DHT22;28755;51.478;5.702;2022-12-20T15:13:41;10.90;99.90
43151;DHT22;28755;51.478;5.702;2022-12-20T15:16:24;11.00;99.90
43151;DHT22;28755;51.478;5.702;2022-12-20T15:18:52;10.90;99.90
43151;DHT22;28755;51.478;5.702;2022-12-20T15:21:36;11.00;99.90
43151;DHT22;28755;51.478;5.702;2022-12-20T15:24:04;10.90;99.90
43151;DHT22;28755;51.478;5.702;2022-12-20T15:26:34;11.00;99.90
43151;DHT22;28755;51.478;5.702;2022-12-20T15:28:59;10.90;99.90
43151;DHT22;28755;51.478;5.702;2022-12-20T15:31:27;10.90;99.90
43151;DHT22;28755;51.478;5.702;2022-12-20T15:33:53;10.90;99.90
43151;DHT22;28755;51.478;5.702;2022-12-20T15:36:24;10.90;99.90
43151;DHT22;28755;51.478;5.702;2022-12-20T15:38:54;11.00;99.90
43151;DHT22;28755;51.478;5.702;2022-12-20T15:43:54;10.90;99.90
43151;DHT22;28755;51.478;5.702;2022-12-20T15:46:21;11.00;99.90
43151;DHT22;28755;51.478;5.702;2022-12-20T15:48:46;10.90;99.90
43151;DHT22;28755;51.478;5.702;2022-12-20T15:51:20;10.90;99.90
43151;DHT22;28755;51.478;5.702;2022-12-20T15:53:48;11.00;99.90
43151;DHT22;28755;51.478;5.702;2022-12-20T15:56:19;11.00;99.90
43151;DHT22;28755;51.478;5.702;2022-12-20T15:58:46;10.90;99.90
43151;DHT22;28755;51.478;5.702;2022-12-20T16:01:17;11.00;99.90
43151;DHT22;28755;51.478;5.702;2022-12-20T16:03:43;11.00;99.90
43151;DHT22;28755;51.478;5.702;2022-12-20T16:06:10;11.00;99.90
43151;DHT22;28755;51.478;5.702;2022-12-20T16:08:37;11.00;99.90
43151;DHT22;28755;51.478;5.702;2022-12-20T16:11:05;10.90;99.90
43151;DHT22;28755;51.478;5.702;2022-12-20T16:13:31;10.90;99.90
43151;DHT22;28755;51.478;5.702;2022-12-20T16:15:56;10.90;99.90
43151;DHT22;28755;51.478;5.702;2022-12-20T16:18:22;11.00;99.90
43151;DHT22;28755;51.478;5.702;2022-12-20T16:20:47;11.00;99.90
43151;DHT22;28755;51.478;5.702;2022-12-20T16:23:18;11.00;99.90
43151;DHT22;28755;51.478;5.702;2022-12-20T16:25:45;10.90;99.90
43151;DHT22;28755;51.478;5.702;2022-12-20T16:28:11;10.90;99.90
43151;DHT22;28755;51.478;5.702;2022-12-20T16:30:36;10.90;99.90
43151;DHT22;28755;51.478;5.702;2022-12-20T16:33:02;11.00;99.90
43151;DHT22;28755;51.478;5.702;2022-12-20T16:35:31;10.90;99.90
43151;DHT22;28755;51.478;5.702;2022-12-20T16:37:58;10.90;99.90
43151;DHT22;28755;51.478;5.702;2022-12-20T16:40:27;10.90;99.90
43151;DHT22;28755;51.478;5.702;2022-12-20T16:42:53;10.90;99.90
43151;DHT22;28755;51.478;5.702;2022-12-20T16:45:22;10.90;99.90
43151;DHT22;28755;51.478;5.702;2022-12-20T16:47:48;10.90;99.90
43151;DHT22;28755;51.478;5.702;2022-12-20T16:50:15;10.90;99.90
43151;DHT22;28755;51.478;5.702;2022-12-20T16:52:41;10.90;99.90
43151;DHT22;28755;51.478;5.702;2022-12-20T16:55:12;10.90;99.90
43151;DHT22;28755;51.478;5.702;2022-12-20T16:57:38;10.90;99.90
43151;DHT22;28755;51.478;5.702;2022-12-20T17:00:04;10.90;99.90
43151;DHT22;28755;51.478;5.702;2022-12-20T17:02:32;10.90;99.90
43151;DHT22;28755;51.478;5.702;2022-12-20T17:04:59;10.90;99.90
43151;DHT22;28755;51.478;5.702;2022-12-20T17:07:25;10.90;99.90
43151;DHT22;28755;51.478;5.702;2022-12-20T17:09:51;10.90;99.90
43151;DHT22;28755;51.478;5.702;2022-12-20T17:12:19;10.90;99.90
43151;DHT22;28755;51.478;5.702;2022-12-20T17:14:45;10.90;99.90
43151;DHT22;28755;51.478;5.702;2022-12-20T17:17:11;11.00;99.90
43151;DHT22;28755;51.478;5.702;2022-12-20T17:19:37;10.90;99.90
43151;DHT22;28755;51.478;5.702;2022-12-20T17:22:03;10.90;99.90
43151;DHT22;28755;51.478;5.702;2022-12-20T17:24:29;10.90;99.90
43151;DHT22;28755;51.478;5.702;2022-12-20T17:26:55;10.90;99.90
43151;DHT22;28755;51.478;5.702;2022-12-20T17:29:20;10.80;99.90
43151;DHT22;28755;51.478;5.702;2022-12-20T17:31:47;10.80;99.90
43151;DHT22;28755;51.478;5.702;2022-12-20T17:34:21;10.80;99.90
43151;DHT22;28755;51.478;5.702;2022-12-20T17:36:48;10.80;99.90
43151;DHT22;28755;51.478;5.702;2022-12-20T17:39:14;10.80;99.90
43151;DHT22;28755;51.478;5.702;2022-12-20T17:41:40;10.80;99.90
43151;DHT22;28755;51.478;5.702;2022-12-20T17:44:15;10.90;99.90
43151;DHT22;28755;51.478;5.702;2022-12-20T17:46:41;10.80;99.90
43151;DHT22;28755;51.478;5.702;2022-12-20T17:49:07;10.80;99.90
43151;DHT22;28755;51.478;5.702;2022-12-20T17:51:32;10.80;99.90
43151;DHT22;28755;51.478;5.702;2022-12-20T17:53:59;10.70;99.90